sensor_id;sensor_type;location;lat;lon;timestamp;P1;durP1;ratioP1;P2;durP2;ratioP2
1380;SDS011;684;48.342;10.096;2023-03-20T00:00:11;5.80;;;2.90;;
1380;SDS011;684;48.342;10.096;2023-03-20T00:02:43;5.57;;;3.10;;
1380;SDS011;684;48.342;10.096;2023-03-20T00:05:14;7.00;;;2.97;;
1380;SDS011;684;48.342;10.096;2023-03-20T00:07:43;6.00;;;2.93;;
1380;SDS011;684;48.342;10.096;2023-03-20T00:10:11;5.93;;;2.80;;
1380;SDS011;684;48.342;10.096;2023-03-20T00:12:38;4.93;;;2.87;;
1380;SDS011;684;48.342;10.096;2023-03-20T00:15:07;6.20;;;2.70;;
1380;SDS011;684;48.342;10.096;2023-03-20T00:17:49;5.40;;;2.80;;
1380;SDS011;684;48.342;10.096;2023-03-20T00:20:16;5.50;;;2.97;;
1380;SDS011;684;48.342;10.096;2023-03-20T00:22:43;5.53;;;3.10;;
1380;SDS011;684;48.342;10.096;2023-03-20T00:25:11;5.63;;;2.93;;
1380;SDS011;684;48.342;10.096;2023-03-20T00:27:40;7.20;;;3.13;;
1380;SDS011;684;48.342;10.096;2023-03-20T00:30:18;4.90;;;2.63;;
1380;SDS011;684;48.342;10.096;2023-03-20T00:32:51;5.87;;;2.90;;
1380;SDS011;684;48.342;10.096;2023-03-20T00:35:19;8.37;;;2.73;;
1380;SDS011;684;48.342;10.096;2023-03-20T00:37:48;5.67;;;2.60;;
1380;SDS011;684;48.342;10.096;2023-03-20T00:40:16;5.30;;;3.00;;
1380;SDS011;684;48.342;10.096;2023-03-20T00:42:43;6.73;;;3.07;;
1380;SDS011;684;48.342;10.096;2023-03-20T00:45:12;6.10;;;3.27;;
1380;SDS011;684;48.342;10.096;2023-03-20T00:47:42;10.23;;;3.10;;
1380;SDS011;684;48.342;10.096;2023-03-20T00:50:14;6.20;;;3.33;;
1380;SDS011;684;48.342;10.096;2023-03-20T00:52:42;5.50;;;2.80;;
1380;SDS011;684;48.342;10.096;2023-03-20T00:55:09;6.83;;;3.50;;
1380;SDS011;684;48.342;10.096;2023-03-20T00:57:38;5.80;;;3.23;;
1380;SDS011;684;48.342;10.096;2023-03-20T01:00:12;6.53;;;2.70;;
1380;SDS011;684;48.342;10.096;2023-03-20T01:02:52;7.83;;;2.87;;
1380;SDS011;684;48.342;10.096;2023-03-20T01:05:24;7.43;;;3.30;;
1380;SDS011;684;48.342;10.096;2023-03-20T01:07:53;5.50;;;2.93;;
1380;SDS011;684;48.342;10.096;2023-03-20T01:10:20;6.67;;;3.90;;
1380;SDS011;684;48.342;10.096;2023-03-20T01:12:47;5.70;;;3.03;;
1380;SDS011;684;48.342;10.096;2023-03-20T01:15:15;6.30;;;3.10;;
1380;SDS011;684;48.342;10.096;2023-03-20T01:17:45;6.93;;;3.63;;
1380;SDS011;684;48.342;10.096;2023-03-20T01:20:16;6.67;;;3.80;;
1380;SDS011;684;48.342;10.096;2023-03-20T01:22:47;7.70;;;4.00;;
1380;SDS011;684;48.342;10.096;2023-03-20T01:25:14;8.67;;;3.47;;
1380;SDS011;684;48.342;10.096;2023-03-20T01:27:41;5.73;;;3.33;;
1380;SDS011;684;48.342;10.096;2023-03-20T01:30:19;7.43;;;3.80;;
1380;SDS011;684;48.342;10.096;2023-03-20T01:32:47;7.60;;;3.60;;
1380;SDS011;684;48.342;10.096;2023-03-20T01:35:15;6.17;;;3.63;;
1380;SDS011;684;48.342;10.096;2023-03-20T01:37:46;7.47;;;3.90;;
1380;SDS011;684;48.342;10.096;2023-03-20T01:40:16;6.73;;;3.97;;
1380;SDS011;684;48.342;10.096;2023-03-20T01:42:51;7.33;;;4.27;;
1380;SDS011;684;48.342;10.096;2023-03-20T01:45:19;7.47;;;4.20;;
1380;SDS011;684;48.342;10.096;2023-03-20T01:47:48;6.70;;;4.40;;
1380;SDS011;684;48.342;10.096;2023-03-20T01:53:07;6.60;;;3.90;;
1380;SDS011;684;48.342;10.096;2023-03-20T01:55:37;7.20;;;4.60;;
1380;SDS011;684;48.342;10.096;2023-03-20T01:58:07;8.30;;;5.10;;
1380;SDS011;684;48.342;10.096;2023-03-20T02:00:36;9.10;;;5.83;;
1380;SDS011;684;48.342;10.096;2023-03-20T02:03:04;6.87;;;4.60;;
1380;SDS011;684;48.342;10.096;2023-03-20T02:05:32;7.07;;;4.13;;
1380;SDS011;684;48.342;10.096;2023-03-20T02:08:07;8.60;;;4.87;;
1380;SDS011;684;48.342;10.096;2023-03-20T02:10:48;6.50;;;4.07;;
1380;SDS011;684;48.342;10.096;2023-03-20T02:13:15;7.03;;;4.70;;
1380;SDS011;684;48.342;10.096;2023-03-20T02:15:53;8.53;;;4.90;;
1380;SDS011;684;48.342;10.096;2023-03-20T02:18:22;7.40;;;4.60;;
1380;SDS011;684;48.342;10.096;2023-03-20T02:20:53;8.83;;;4.80;;
1380;SDS011;684;48.342;10.096;2023-03-20T02:23:54;6.93;;;4.40;;
1380;SDS011;684;48.342;10.096;2023-03-20T02:26:35;7.20;;;4.60;;
1380;SDS011;684;48.342;10.096;2023-03-20T02:29:32;9.40;;;4.87;;
1380;SDS011;684;48.342;10.096;2023-03-20T02:36:02;8.33;;;5.00;;
1380;SDS011;684;48.342;10.096;2023-03-20T02:39:11;7.47;;;4.93;;
1380;SDS011;684;48.342;10.096;2023-03-20T02:41:45;8.47;;;4.87;;
1380;SDS011;684;48.342;10.096;2023-03-20T02:44:20;7.60;;;4.60;;
1380;SDS011;684;48.342;10.096;2023-03-20T02:46:52;8.60;;;5.80;;
1380;SDS011;684;48.342;10.096;2023-03-20T02:49:30;8.40;;;5.70;;
1380;SDS011;684;48.342;10.096;2023-03-20T02:52:10;7.47;;;4.60;;
1380;SDS011;684;48.342;10.096;2023-03-20T02:54:47;8.73;;;6.00;;
1380;SDS011;684;48.342;10.096;2023-03-20T02:57:20;7.60;;;5.03;;
1380;SDS011;684;48.342;10.096;2023-03-20T02:59:54;8.50;;;5.33;;
1380;SDS011;684;48.342;10.096;2023-03-20T03:02:26;8.43;;;5.40;;
1380;SDS011;684;48.342;10.096;2023-03-20T03:04:59;9.60;;;6.20;;
1380;SDS011;684;48.342;10.096;2023-03-20T03:07:29;9.30;;;5.60;;
1380;SDS011;684;48.342;10.096;2023-03-20T03:10:00;10.90;;;5.90;;
1380;SDS011;684;48.342;10.096;2023-03-20T03:12:31;8.13;;;5.57;;
1380;SDS011;684;48.342;10.096;2023-03-20T03:15:03;10.07;;;6.23;;
1380;SDS011;684;48.342;10.096;2023-03-20T03:17:33;9.60;;;6.60;;
1380;SDS011;684;48.342;10.096;2023-03-20T03:20:02;9.13;;;6.23;;
1380;SDS011;684;48.342;10.096;2023-03-20T03:22:33;9.00;;;6.47;;
1380;SDS011;684;48.342;10.096;2023-03-20T03:25:02;8.90;;;6.40;;
1380;SDS011;684;48.342;10.096;2023-03-20T03:27:31;10.67;;;7.13;;
1380;SDS011;684;48.342;10.096;2023-03-20T03:30:03;11.47;;;6.70;;
1380;SDS011;684;48.342;10.096;2023-03-20T03:32:33;12.43;;;7.33;;
1380;SDS011;684;48.342;10.096;2023-03-20T03:35:03;10.63;;;7.60;;
1380;SDS011;684;48.342;10.096;2023-03-20T03:37:38;11.47;;;7.97;;
1380;SDS011;684;48.342;10.096;2023-03-20T03:40:11;10.90;;;7.93;;
1380;SDS011;684;48.342;10.096;2023-03-20T03:42:49;10.83;;;7.57;;
1380;SDS011;684;48.342;10.096;2023-03-20T03:45:21;11.90;;;9.20;;
1380;SDS011;684;48.342;10.096;2023-03-20T03:47:54;12.53;;;8.43;;
1380;SDS011;684;48.342;10.096;2023-03-20T03:50:27;13.00;;;9.37;;
1380;SDS011;684;48.342;10.096;2023-03-20T03:52:56;14.90;;;8.90;;
1380;SDS011;684;48.342;10.096;2023-03-20T03:55:28;11.27;;;7.87;;
1380;SDS011;684;48.342;10.096;2023-03-20T03:58:02;13.13;;;10.00;;
1380;SDS011;684;48.342;10.096;2023-03-20T04:00:32;11.30;;;8.13;;
1380;SDS011;684;48.342;10.096;2023-03-20T04:02:59;11.97;;;8.80;;
1380;SDS011;684;48.342;10.096;2023-03-20T04:05:27;13.90;;;9.13;;
1380;SDS011;684;48.342;10.096;2023-03-20T04:07:57;11.30;;;8.73;;
1380;SDS011;684;48.342;10.096;2023-03-20T04:10:27;13.33;;;9.30;;
1380;SDS011;684;48.342;10.096;2023-03-20T04:12:54;12.37;;;8.83;;
1380;SDS011;684;48.342;10.096;2023-03-20T04:15:21;12.07;;;9.37;;
1380;SDS011;684;48.342;10.096;2023-03-20T04:17:48;11.60;;;8.40;;
1380;SDS011;684;48.342;10.096;2023-03-20T04:20:14;11.67;;;8.50;;
1380;SDS011;684;48.342;10.096;2023-03-20T04:22:41;11.63;;;8.53;;
1380;SDS011;684;48.342;10.096;2023-03-20T04:25:08;12.40;;;9.10;;
1380;SDS011;684;48.342;10.096;2023-03-20T04:27:42;11.90;;;8.40;;
1380;SDS011;684;48.342;10.096;2023-03-20T04:30:10;11.00;;;7.90;;
1380;SDS011;684;48.342;10.096;2023-03-20T04:32:37;13.33;;;7.80;;
1380;SDS011;684;48.342;10.096;2023-03-20T04:35:04;13.47;;;8.37;;
1380;SDS011;684;48.342;10.096;2023-03-20T04:37:32;11.07;;;8.07;;
1380;SDS011;684;48.342;10.096;2023-03-20T04:39:59;10.37;;;7.80;;
1380;SDS011;684;48.342;10.096;2023-03-20T04:42:25;10.77;;;7.27;;
1380;SDS011;684;48.342;10.096;2023-03-20T04:44:53;13.10;;;8.10;;
1380;SDS011;684;48.342;10.096;2023-03-20T04:47:20;13.07;;;7.13;;
1380;SDS011;684;48.342;10.096;2023-03-20T04:49:47;11.90;;;7.97;;
1380;SDS011;684;48.342;10.096;2023-03-20T04:52:13;11.53;;;8.10;;
1380;SDS011;684;48.342;10.096;2023-03-20T04:54:40;9.93;;;7.10;;
1380;SDS011;684;48.342;10.096;2023-03-20T04:57:07;10.50;;;7.50;;
1380;SDS011;684;48.342;10.096;2023-03-20T04:59:33;9.73;;;7.53;;
1380;SDS011;684;48.342;10.096;2023-03-20T05:02:01;10.90;;;8.10;;
1380;SDS011;684;48.342;10.096;2023-03-20T05:04:29;11.33;;;7.20;;
1380;SDS011;684;48.342;10.096;2023-03-20T05:06:55;12.13;;;7.80;;
1380;SDS011;684;48.342;10.096;2023-03-20T05:09:22;11.93;;;6.97;;
1380;SDS011;684;48.342;10.096;2023-03-20T05:11:49;9.30;;;6.43;;
1380;SDS011;684;48.342;10.096;2023-03-20T05:14:16;9.00;;;6.43;;
1380;SDS011;684;48.342;10.096;2023-03-20T05:16:42;9.50;;;6.90;;
1380;SDS011;684;48.342;10.096;2023-03-20T05:19:10;9.47;;;7.00;;
1380;SDS011;684;48.342;10.096;2023-03-20T05:21:37;10.30;;;7.30;;
1380;SDS011;684;48.342;10.096;2023-03-20T05:24:04;9.83;;;6.80;;
1380;SDS011;684;48.342;10.096;2023-03-20T05:26:31;9.70;;;6.70;;
1380;SDS011;684;48.342;10.096;2023-03-20T05:28:58;10.57;;;7.20;;
1380;SDS011;684;48.342;10.096;2023-03-20T05:31:25;8.37;;;5.80;;
1380;SDS011;684;48.342;10.096;2023-03-20T05:33:51;9.33;;;6.30;;
1380;SDS011;684;48.342;10.096;2023-03-20T05:36:19;9.93;;;5.60;;
1380;SDS011;684;48.342;10.096;2023-03-20T05:38:46;9.30;;;6.17;;
1380;SDS011;684;48.342;10.096;2023-03-20T05:41:13;10.77;;;6.80;;
1380;SDS011;684;48.342;10.096;2023-03-20T05:43:40;9.73;;;6.03;;
1380;SDS011;684;48.342;10.096;2023-03-20T05:46:07;9.70;;;5.50;;
1380;SDS011;684;48.342;10.096;2023-03-20T05:48:34;8.60;;;5.20;;
1380;SDS011;684;48.342;10.096;2023-03-20T05:51:00;10.07;;;5.93;;
1380;SDS011;684;48.342;10.096;2023-03-20T05:53:29;8.03;;;4.80;;
1380;SDS011;684;48.342;10.096;2023-03-20T05:55:55;8.20;;;4.40;;
1380;SDS011;684;48.342;10.096;2023-03-20T05:58:22;7.20;;;4.40;;
1380;SDS011;684;48.342;10.096;2023-03-20T06:00:49;6.73;;;4.03;;
1380;SDS011;684;48.342;10.096;2023-03-20T06:03:16;6.80;;;4.00;;
1380;SDS011;684;48.342;10.096;2023-03-20T06:05:43;7.20;;;3.80;;
1380;SDS011;684;48.342;10.096;2023-03-20T06:08:10;7.07;;;4.10;;
1380;SDS011;684;48.342;10.096;2023-03-20T06:10:39;7.30;;;4.63;;
1380;SDS011;684;48.342;10.096;2023-03-20T06:13:05;6.70;;;4.47;;
1380;SDS011;684;48.342;10.096;2023-03-20T06:15:32;7.90;;;4.90;;
1380;SDS011;684;48.342;10.096;2023-03-20T06:17:59;8.40;;;4.40;;
1380;SDS011;684;48.342;10.096;2023-03-20T06:20:26;6.57;;;4.17;;
1380;SDS011;684;48.342;10.096;2023-03-20T06:22:53;7.97;;;5.13;;
1380;SDS011;684;48.342;10.096;2023-03-20T06:25:19;7.60;;;4.97;;
1380;SDS011;684;48.342;10.096;2023-03-20T06:27:48;8.00;;;5.40;;
1380;SDS011;684;48.342;10.096;2023-03-20T06:30:15;9.97;;;4.60;;
1380;SDS011;684;48.342;10.096;2023-03-20T06:32:42;9.90;;;5.33;;
1380;SDS011;684;48.342;10.096;2023-03-20T06:35:09;8.47;;;4.90;;
1380;SDS011;684;48.342;10.096;2023-03-20T06:37:37;9.23;;;5.00;;
1380;SDS011;684;48.342;10.096;2023-03-20T06:40:05;8.00;;;5.50;;
1380;SDS011;684;48.342;10.096;2023-03-20T06:42:32;7.83;;;5.40;;
1380;SDS011;684;48.342;10.096;2023-03-20T06:45:01;8.60;;;5.50;;
1380;SDS011;684;48.342;10.096;2023-03-20T06:47:28;10.00;;;5.93;;
1380;SDS011;684;48.342;10.096;2023-03-20T06:49:54;8.20;;;4.80;;
1380;SDS011;684;48.342;10.096;2023-03-20T06:52:21;8.00;;;4.83;;
1380;SDS011;684;48.342;10.096;2023-03-20T06:54:49;7.13;;;3.83;;
1380;SDS011;684;48.342;10.096;2023-03-20T06:57:16;8.50;;;4.80;;
1380;SDS011;684;48.342;10.096;2023-03-20T06:59:43;7.40;;;4.60;;
1380;SDS011;684;48.342;10.096;2023-03-20T07:02:11;7.33;;;4.37;;
1380;SDS011;684;48.342;10.096;2023-03-20T07:04:38;10.80;;;4.40;;
1380;SDS011;684;48.342;10.096;2023-03-20T07:07:05;6.70;;;4.20;;
1380;SDS011;684;48.342;10.096;2023-03-20T07:09:31;8.10;;;5.33;;
1380;SDS011;684;48.342;10.096;2023-03-20T07:11:58;11.00;;;5.30;;
1380;SDS011;684;48.342;10.096;2023-03-20T07:14:26;8.23;;;4.80;;
1380;SDS011;684;48.342;10.096;2023-03-20T07:16:53;6.87;;;4.43;;
1380;SDS011;684;48.342;10.096;2023-03-20T07:19:21;9.60;;;4.00;;
1380;SDS011;684;48.342;10.096;2023-03-20T07:21:49;7.70;;;4.37;;
1380;SDS011;684;48.342;10.096;2023-03-20T07:24:22;8.00;;;4.87;;
1380;SDS011;684;48.342;10.096;2023-03-20T07:26:49;6.20;;;4.03;;
1380;SDS011;684;48.342;10.096;2023-03-20T07:29:16;6.77;;;4.23;;
1380;SDS011;684;48.342;10.096;2023-03-20T07:31:42;7.30;;;4.40;;
1380;SDS011;684;48.342;10.096;2023-03-20T07:34:09;7.60;;;3.93;;
1380;SDS011;684;48.342;10.096;2023-03-20T07:36:38;7.23;;;3.47;;
1380;SDS011;684;48.342;10.096;2023-03-20T07:39:06;7.20;;;3.50;;
1380;SDS011;684;48.342;10.096;2023-03-20T07:41:33;6.60;;;3.57;;
1380;SDS011;684;48.342;10.096;2023-03-20T07:44:00;7.63;;;3.30;;
1380;SDS011;684;48.342;10.096;2023-03-20T07:46:27;6.30;;;3.80;;
1380;SDS011;684;48.342;10.096;2023-03-20T07:48:54;6.97;;;3.20;;
1380;SDS011;684;48.342;10.096;2023-03-20T07:51:22;7.00;;;3.50;;
1380;SDS011;684;48.342;10.096;2023-03-20T07:53:50;6.57;;;3.90;;
1380;SDS011;684;48.342;10.096;2023-03-20T07:56:17;6.17;;;2.70;;
1380;SDS011;684;48.342;10.096;2023-03-20T07:58:45;5.60;;;2.43;;
1380;SDS011;684;48.342;10.096;2023-03-20T08:01:11;5.90;;;3.13;;
1380;SDS011;684;48.342;10.096;2023-03-20T08:03:38;6.30;;;2.60;;
1380;SDS011;684;48.342;10.096;2023-03-20T08:06:05;4.90;;;1.97;;
1380;SDS011;684;48.342;10.096;2023-03-20T08:08:33;4.83;;;2.17;;
1380;SDS011;684;48.342;10.096;2023-03-20T08:11:01;6.37;;;2.53;;
1380;SDS011;684;48.342;10.096;2023-03-20T08:13:28;5.77;;;2.10;;
1380;SDS011;684;48.342;10.096;2023-03-20T08:15:55;5.40;;;2.40;;
1380;SDS011;684;48.342;10.096;2023-03-20T08:18:22;5.00;;;1.90;;
1380;SDS011;684;48.342;10.096;2023-03-20T08:20:48;4.90;;;1.87;;
1380;SDS011;684;48.342;10.096;2023-03-20T08:23:15;5.50;;;2.23;;
1380;SDS011;684;48.342;10.096;2023-03-20T08:25:45;4.50;;;1.80;;
1380;SDS011;684;48.342;10.096;2023-03-20T08:28:14;4.63;;;2.10;;
1380;SDS011;684;48.342;10.096;2023-03-20T08:30:41;4.23;;;1.40;;
1380;SDS011;684;48.342;10.096;2023-03-20T08:33:08;4.73;;;1.50;;
1380;SDS011;684;48.342;10.096;2023-03-20T08:35:36;5.13;;;2.10;;
1380;SDS011;684;48.342;10.096;2023-03-20T08:38:03;5.60;;;1.87;;
1380;SDS011;684;48.342;10.096;2023-03-20T08:40:30;4.33;;;1.47;;
1380;SDS011;684;48.342;10.096;2023-03-20T08:42:57;3.87;;;1.20;;
1380;SDS011;684;48.342;10.096;2023-03-20T08:45:26;4.20;;;1.60;;
1380;SDS011;684;48.342;10.096;2023-03-20T08:47:52;6.90;;;1.73;;
1380;SDS011;684;48.342;10.096;2023-03-20T08:50:20;5.10;;;2.27;;
1380;SDS011;684;48.342;10.096;2023-03-20T08:52:47;4.10;;;1.80;;
1380;SDS011;684;48.342;10.096;2023-03-20T08:55:14;4.60;;;2.27;;
1380;SDS011;684;48.342;10.096;2023-03-20T08:57:41;5.20;;;2.60;;
1380;SDS011;684;48.342;10.096;2023-03-20T09:00:09;4.23;;;1.80;;
1380;SDS011;684;48.342;10.096;2023-03-20T09:02:39;4.30;;;1.87;;
1380;SDS011;684;48.342;10.096;2023-03-20T09:05:07;4.53;;;2.07;;
1380;SDS011;684;48.342;10.096;2023-03-20T09:07:34;4.40;;;2.07;;
1380;SDS011;684;48.342;10.096;2023-03-20T09:10:01;4.93;;;2.03;;
1380;SDS011;684;48.342;10.096;2023-03-20T09:12:29;4.40;;;1.60;;
1380;SDS011;684;48.342;10.096;2023-03-20T09:14:56;4.10;;;1.73;;
1380;SDS011;684;48.342;10.096;2023-03-20T09:17:23;4.90;;;2.10;;
1380;SDS011;684;48.342;10.096;2023-03-20T09:19:52;4.53;;;2.03;;
1380;SDS011;684;48.342;10.096;2023-03-20T09:22:18;4.40;;;2.00;;
1380;SDS011;684;48.342;10.096;2023-03-20T09:24:45;4.53;;;1.63;;
1380;SDS011;684;48.342;10.096;2023-03-20T09:27:12;4.50;;;1.83;;
1380;SDS011;684;48.342;10.096;2023-03-20T09:29:39;4.20;;;1.80;;
1380;SDS011;684;48.342;10.096;2023-03-20T09:32:06;5.10;;;1.70;;
1380;SDS011;684;48.342;10.096;2023-03-20T09:34:35;5.00;;;1.83;;
1380;SDS011;684;48.342;10.096;2023-03-20T09:37:03;3.97;;;1.30;;
1380;SDS011;684;48.342;10.096;2023-03-20T09:39:30;3.90;;;1.37;;
1380;SDS011;684;48.342;10.096;2023-03-20T09:41:57;4.03;;;1.47;;
1380;SDS011;684;48.342;10.096;2023-03-20T09:44:36;3.73;;;1.40;;
1380;SDS011;684;48.342;10.096;2023-03-20T09:47:12;3.80;;;1.10;;
1380;SDS011;684;48.342;10.096;2023-03-20T09:49:47;4.37;;;1.50;;
1380;SDS011;684;48.342;10.096;2023-03-20T09:52:27;4.07;;;1.47;;
1380;SDS011;684;48.342;10.096;2023-03-20T09:54:57;4.17;;;1.50;;
1380;SDS011;684;48.342;10.096;2023-03-20T09:57:31;4.83;;;1.30;;
1380;SDS011;684;48.342;10.096;2023-03-20T10:00:05;5.00;;;1.50;;
1380;SDS011;684;48.342;10.096;2023-03-20T10:02:38;3.80;;;1.10;;
1380;SDS011;684;48.342;10.096;2023-03-20T10:05:14;3.60;;;1.13;;
1380;SDS011;684;48.342;10.096;2023-03-20T10:07:47;4.10;;;1.30;;
1380;SDS011;684;48.342;10.096;2023-03-20T10:10:14;3.93;;;1.50;;
1380;SDS011;684;48.342;10.096;2023-03-20T10:12:54;4.00;;;1.30;;
1380;SDS011;684;48.342;10.096;2023-03-20T10:15:38;4.40;;;1.60;;
1380;SDS011;684;48.342;10.096;2023-03-20T10:18:13;4.43;;;1.00;;
1380;SDS011;684;48.342;10.096;2023-03-20T10:20:48;4.00;;;1.30;;
1380;SDS011;684;48.342;10.096;2023-03-20T10:23:23;3.77;;;1.40;;
1380;SDS011;684;48.342;10.096;2023-03-20T10:25:58;7.00;;;1.53;;
1380;SDS011;684;48.342;10.096;2023-03-20T10:28:29;4.30;;;1.63;;
1380;SDS011;684;48.342;10.096;2023-03-20T10:31:03;4.40;;;1.40;;
1380;SDS011;684;48.342;10.096;2023-03-20T10:33:45;4.73;;;1.60;;
1380;SDS011;684;48.342;10.096;2023-03-20T10:36:33;4.03;;;1.63;;
1380;SDS011;684;48.342;10.096;2023-03-20T10:39:11;6.90;;;2.17;;
1380;SDS011;684;48.342;10.096;2023-03-20T10:41:46;6.73;;;2.13;;
1380;SDS011;684;48.342;10.096;2023-03-20T10:44:19;4.70;;;2.20;;
1380;SDS011;684;48.342;10.096;2023-03-20T10:46:52;4.80;;;1.90;;
1380;SDS011;684;48.342;10.096;2023-03-20T10:49:25;5.03;;;1.90;;
1380;SDS011;684;48.342;10.096;2023-03-20T10:51:58;4.43;;;1.93;;
1380;SDS011;684;48.342;10.096;2023-03-20T10:54:30;4.50;;;1.50;;
1380;SDS011;684;48.342;10.096;2023-03-20T10:56:59;5.17;;;1.70;;
1380;SDS011;684;48.342;10.096;2023-03-20T10:59:28;4.63;;;1.60;;
1380;SDS011;684;48.342;10.096;2023-03-20T11:01:59;4.90;;;2.07;;
1380;SDS011;684;48.342;10.096;2023-03-20T11:04:26;4.53;;;1.83;;
1380;SDS011;684;48.342;10.096;2023-03-20T11:06:54;4.43;;;1.80;;
1380;SDS011;684;48.342;10.096;2023-03-20T11:09:26;6.83;;;1.70;;
1380;SDS011;684;48.342;10.096;2023-03-20T11:11:56;4.07;;;1.53;;
1380;SDS011;684;48.342;10.096;2023-03-20T11:14:25;3.60;;;0.90;;
1380;SDS011;684;48.342;10.096;2023-03-20T11:16:56;4.57;;;0.90;;
1380;SDS011;684;48.342;10.096;2023-03-20T11:19:28;4.80;;;1.20;;
1380;SDS011;684;48.342;10.096;2023-03-20T11:21:59;4.90;;;1.60;;
1380;SDS011;684;48.342;10.096;2023-03-20T11:24:34;4.10;;;1.37;;
1380;SDS011;684;48.342;10.096;2023-03-20T11:27:06;4.80;;;1.60;;
1380;SDS011;684;48.342;10.096;2023-03-20T11:29:34;3.80;;;1.00;;
1380;SDS011;684;48.342;10.096;2023-03-20T11:32:02;4.60;;;1.00;;
1380;SDS011;684;48.342;10.096;2023-03-20T11:34:32;3.63;;;0.97;;
1380;SDS011;684;48.342;10.096;2023-03-20T11:37:05;5.40;;;1.30;;
1380;SDS011;684;48.342;10.096;2023-03-20T11:39:32;4.27;;;1.43;;
1380;SDS011;684;48.342;10.096;2023-03-20T11:42:01;3.50;;;0.90;;
1380;SDS011;684;48.342;10.096;2023-03-20T11:44:30;3.70;;;1.10;;
1380;SDS011;684;48.342;10.096;2023-03-20T11:46:58;3.70;;;0.90;;
1380;SDS011;684;48.342;10.096;2023-03-20T11:49:27;3.33;;;0.73;;
1380;SDS011;684;48.342;10.096;2023-03-20T11:51:56;3.73;;;0.90;;
1380;SDS011;684;48.342;10.096;2023-03-20T11:54:26;4.00;;;1.40;;
1380;SDS011;684;48.342;10.096;2023-03-20T11:56:55;3.70;;;1.10;;
1380;SDS011;684;48.342;10.096;2023-03-20T11:59:24;3.70;;;1.20;;
1380;SDS011;684;48.342;10.096;2023-03-20T12:01:56;3.60;;;1.17;;
1380;SDS011;684;48.342;10.096;2023-03-20T12:04:27;3.60;;;0.87;;
1380;SDS011;684;48.342;10.096;2023-03-20T12:06:56;3.60;;;1.00;;
1380;SDS011;684;48.342;10.096;2023-03-20T12:09:34;3.60;;;0.80;;
1380;SDS011;684;48.342;10.096;2023-03-20T12:12:06;4.07;;;1.00;;
1380;SDS011;684;48.342;10.096;2023-03-20T12:14:42;3.30;;;0.70;;
1380;SDS011;684;48.342;10.096;2023-03-20T12:17:31;3.57;;;0.80;;
1380;SDS011;684;48.342;10.096;2023-03-20T12:20:05;4.27;;;0.87;;
1380;SDS011;684;48.342;10.096;2023-03-20T12:22:41;3.90;;;1.00;;
1380;SDS011;684;48.342;10.096;2023-03-20T12:25:17;3.60;;;0.90;;
1380;SDS011;684;48.342;10.096;2023-03-20T12:27:50;3.93;;;0.93;;
1380;SDS011;684;48.342;10.096;2023-03-20T12:30:21;4.43;;;0.80;;
1380;SDS011;684;48.342;10.096;2023-03-20T12:32:59;3.97;;;0.97;;
1380;SDS011;684;48.342;10.096;2023-03-20T12:35:33;4.33;;;1.10;;
1380;SDS011;684;48.342;10.096;2023-03-20T12:38:02;3.70;;;1.10;;
1380;SDS011;684;48.342;10.096;2023-03-20T12:40:37;3.87;;;0.73;;
1380;SDS011;684;48.342;10.096;2023-03-20T12:43:09;4.47;;;0.90;;
1380;SDS011;684;48.342;10.096;2023-03-20T12:45:40;4.13;;;1.13;;
1380;SDS011;684;48.342;10.096;2023-03-20T12:51:21;4.70;;;1.03;;
1380;SDS011;684;48.342;10.096;2023-03-20T12:53:55;3.60;;;0.90;;
1380;SDS011;684;48.342;10.096;2023-03-20T12:56:42;3.80;;;1.00;;
1380;SDS011;684;48.342;10.096;2023-03-20T12:59:17;4.67;;;0.90;;
1380;SDS011;684;48.342;10.096;2023-03-20T13:01:49;4.47;;;1.20;;
1380;SDS011;684;48.342;10.096;2023-03-20T13:07:13;3.70;;;0.97;;
1380;SDS011;684;48.342;10.096;2023-03-20T13:12:40;3.87;;;1.10;;
1380;SDS011;684;48.342;10.096;2023-03-20T13:15:17;4.30;;;0.90;;
1380;SDS011;684;48.342;10.096;2023-03-20T13:17:54;3.60;;;0.83;;
1380;SDS011;684;48.342;10.096;2023-03-20T13:20:28;4.30;;;1.27;;
1380;SDS011;684;48.342;10.096;2023-03-20T13:22:59;4.07;;;1.33;;
1380;SDS011;684;48.342;10.096;2023-03-20T13:25:38;4.60;;;1.30;;
1380;SDS011;684;48.342;10.096;2023-03-20T13:28:14;5.37;;;1.87;;
1380;SDS011;684;48.342;10.096;2023-03-20T13:30:48;4.00;;;1.30;;
1380;SDS011;684;48.342;10.096;2023-03-20T13:33:25;4.07;;;0.90;;
1380;SDS011;684;48.342;10.096;2023-03-20T13:36:03;3.77;;;1.00;;
1380;SDS011;684;48.342;10.096;2023-03-20T13:38:40;4.40;;;1.03;;
1380;SDS011;684;48.342;10.096;2023-03-20T13:41:11;5.07;;;2.47;;
1380;SDS011;684;48.342;10.096;2023-03-20T13:43:40;3.90;;;1.40;;
1380;SDS011;684;48.342;10.096;2023-03-20T13:46:13;4.10;;;0.90;;
1380;SDS011;684;48.342;10.096;2023-03-20T13:48:43;3.73;;;1.20;;
1380;SDS011;684;48.342;10.096;2023-03-20T13:51:15;4.40;;;2.10;;
1380;SDS011;684;48.342;10.096;2023-03-20T13:53:53;4.10;;;1.60;;
1380;SDS011;684;48.342;10.096;2023-03-20T13:56:32;5.63;;;3.20;;
1380;SDS011;684;48.342;10.096;2023-03-20T14:01:59;4.50;;;1.10;;
1380;SDS011;684;48.342;10.096;2023-03-20T14:04:39;4.13;;;0.90;;
1380;SDS011;684;48.342;10.096;2023-03-20T14:09:56;3.60;;;0.90;;
1380;SDS011;684;48.342;10.096;2023-03-20T14:12:23;4.00;;;1.00;;
1380;SDS011;684;48.342;10.096;2023-03-20T14:14:52;3.40;;;0.83;;
1380;SDS011;684;48.342;10.096;2023-03-20T14:17:22;5.53;;;0.90;;
1380;SDS011;684;48.342;10.096;2023-03-20T14:19:51;3.33;;;0.73;;
1380;SDS011;684;48.342;10.096;2023-03-20T14:22:20;4.00;;;1.20;;
1380;SDS011;684;48.342;10.096;2023-03-20T14:24:55;3.80;;;0.97;;
1380;SDS011;684;48.342;10.096;2023-03-20T14:27:25;3.97;;;1.30;;
1380;SDS011;684;48.342;10.096;2023-03-20T14:29:54;4.07;;;1.30;;
1380;SDS011;684;48.342;10.096;2023-03-20T14:32:31;3.70;;;1.00;;
1380;SDS011;684;48.342;10.096;2023-03-20T14:35:17;3.50;;;0.80;;
1380;SDS011;684;48.342;10.096;2023-03-20T14:40:46;4.03;;;1.30;;
1380;SDS011;684;48.342;10.096;2023-03-20T14:43:21;4.13;;;1.03;;
1380;SDS011;684;48.342;10.096;2023-03-20T14:45:56;3.80;;;0.90;;
1380;SDS011;684;48.342;10.096;2023-03-20T14:48:29;5.10;;;0.93;;
1380;SDS011;684;48.342;10.096;2023-03-20T14:51:05;3.60;;;1.00;;
1380;SDS011;684;48.342;10.096;2023-03-20T14:53:38;3.70;;;1.20;;
1380;SDS011;684;48.342;10.096;2023-03-20T14:56:08;3.83;;;0.93;;
1380;SDS011;684;48.342;10.096;2023-03-20T14:58:42;3.80;;;1.07;;
1380;SDS011;684;48.342;10.096;2023-03-20T15:01:22;3.80;;;1.10;;
1380;SDS011;684;48.342;10.096;2023-03-20T15:03:52;3.90;;;0.80;;
1380;SDS011;684;48.342;10.096;2023-03-20T15:06:23;3.93;;;1.23;;
1380;SDS011;684;48.342;10.096;2023-03-20T15:08:52;4.10;;;1.23;;
1380;SDS011;684;48.342;10.096;2023-03-20T15:11:23;3.83;;;1.00;;
1380;SDS011;684;48.342;10.096;2023-03-20T15:13:50;4.77;;;1.70;;
1380;SDS011;684;48.342;10.096;2023-03-20T15:16:24;4.07;;;1.47;;
1380;SDS011;684;48.342;10.096;2023-03-20T15:18:52;7.80;;;5.40;;
1380;SDS011;684;48.342;10.096;2023-03-20T15:21:20;5.37;;;2.10;;
1380;SDS011;684;48.342;10.096;2023-03-20T15:23:54;3.70;;;1.20;;
1380;SDS011;684;48.342;10.096;2023-03-20T15:26:23;6.83;;;1.57;;
1380;SDS011;684;48.342;10.096;2023-03-20T15:28:53;4.00;;;1.20;;
1380;SDS011;684;48.342;10.096;2023-03-20T15:31:26;3.60;;;0.90;;
1380;SDS011;684;48.342;10.096;2023-03-20T15:33:56;4.80;;;1.07;;
1380;SDS011;684;48.342;10.096;2023-03-20T15:36:25;3.70;;;1.20;;
1380;SDS011;684;48.342;10.096;2023-03-20T15:38:57;3.77;;;1.27;;
1380;SDS011;684;48.342;10.096;2023-03-20T15:41:31;3.60;;;1.10;;
1380;SDS011;684;48.342;10.096;2023-03-20T15:46:52;4.53;;;1.20;;
1380;SDS011;684;48.342;10.096;2023-03-20T15:49:22;4.33;;;1.40;;
1380;SDS011;684;48.342;10.096;2023-03-20T15:51:50;4.00;;;1.07;;
1380;SDS011;684;48.342;10.096;2023-03-20T15:54:18;4.73;;;1.20;;
1380;SDS011;684;48.342;10.096;2023-03-20T15:56:48;5.50;;;1.40;;
1380;SDS011;684;48.342;10.096;2023-03-20T15:59:17;3.53;;;0.87;;